sensor_id;sensor_type;location;lat;lon;timestamp;temperature;humidity
21108;DHT22;10712;52.944;9.098;2022-09-09T00:04:05;14.90;91.50
21108;DHT22;10712;52.944;9.098;2022-09-09T00:09:33;14.90;91.60
21108;DHT22;10712;52.944;9.098;2022-09-09T00:12:12;14.90;91.60
21108;DHT22;10712;52.944;9.098;2022-09-09T00:14:58;14.90;91.70
21108;DHT22;10712;52.944;9.098;2022-09-09T00:17:51;14.90;91.70
21108;DHT22;10712;52.944;9.098;2022-09-09T00:20:32;14.90;91.70
21108;DHT22;10712;52.944;9.098;2022-09-09T00:28:39;14.90;91.80
21108;DHT22;10712;52.944;9.098;2022-09-09T00:31:32;14.90;91.90
21108;DHT22;10712;52.944;9.098;2022-09-09T00:34:03;14.90;91.90
21108;DHT22;10712;52.944;9.098;2022-09-09T00:36:59;14.90;91.90
21108;DHT22;10712;52.944;9.098;2022-09-09T00:39:41;14.90;92.00
21108;DHT22;10712;52.944;9.098;2022-09-09T00:42:39;14.90;91.90
21108;DHT22;10712;52.944;9.098;2022-09-09T00:47:57;14.90;91.90
21108;DHT22;10712;52.944;9.098;2022-09-09T00:50:34;14.90;91.90
21108;DHT22;10712;52.944;9.098;2022-09-09T00:56:13;14.80;91.90
21108;DHT22;10712;52.944;9.098;2022-09-09T00:58:43;14.80;91.80
21108;DHT22;10712;52.944;9.098;2022-09-09T01:01:17;14.70;91.90
21108;DHT22;10712;52.944;9.098;2022-09-09T01:03:53;14.70;91.80
21108;DHT22;10712;52.944;9.098;2022-09-09T01:06:34;14.70;91.80
21108;DHT22;10712;52.944;9.098;2022-09-09T01:09:26;14.70;91.80
21108;DHT22;10712;52.944;9.098;2022-09-09T01:12:02;14.60;91.80
21108;DHT22;10712;52.944;9.098;2022-09-09T01:14:52;14.60;91.80
21108;DHT22;10712;52.944;9.098;2022-09-09T01:18:00;14.60;91.70
21108;DHT22;10712;52.944;9.098;2022-09-09T01:25:05;14.60;91.70
21108;DHT22;10712;52.944;9.098;2022-09-09T01:27:13;14.50;91.60
21108;DHT22;10712;52.944;9.098;2022-09-09T01:29:43;14.50;91.60
21108;DHT22;10712;52.944;9.098;2022-09-09T01:32:44;14.50;91.50
21108;DHT22;10712;52.944;9.098;2022-09-09T01:38:39;14.50;91.60
21108;DHT22;10712;52.944;9.098;2022-09-09T01:41:06;14.50;91.60
21108;DHT22;10712;52.944;9.098;2022-09-09T01:43:42;14.40;91.50
21108;DHT22;10712;52.944;9.098;2022-09-09T01:46:08;14.40;91.50
21108;DHT22;10712;52.944;9.098;2022-09-09T01:48:36;14.40;91.40
21108;DHT22;10712;52.944;9.098;2022-09-09T01:51:07;14.40;91.50
21108;DHT22;10712;52.944;9.098;2022-09-09T01:53:34;14.40;91.40
21108;DHT22;10712;52.944;9.098;2022-09-09T01:56:31;14.30;91.40
21108;DHT22;10712;52.944;9.098;2022-09-09T01:59:03;14.30;91.40
21108;DHT22;10712;52.944;9.098;2022-09-09T02:02:18;14.30;91.30
21108;DHT22;10712;52.944;9.098;2022-09-09T02:08:34;14.30;91.20
21108;DHT22;10712;52.944;9.098;2022-09-09T02:11:15;14.20;91.10
21108;DHT22;10712;52.944;9.098;2022-09-09T02:14:18;14.20;91.00
21108;DHT22;10712;52.944;9.098;2022-09-09T02:17:11;14.20;91.00
21108;DHT22;10712;52.944;9.098;2022-09-09T02:20:07;14.20;91.00
21108;DHT22;10712;52.944;9.098;2022-09-09T02:22:53;14.10;91.00
21108;DHT22;10712;52.944;9.098;2022-09-09T02:25:24;14.10;90.90
21108;DHT22;10712;52.944;9.098;2022-09-09T02:27:57;14.10;90.90
21108;DHT22;10712;52.944;9.098;2022-09-09T02:30:28;14.00;91.00
21108;DHT22;10712;52.944;9.098;2022-09-09T02:33:00;14.00;91.10
21108;DHT22;10712;52.944;9.098;2022-09-09T02:35:42;14.00;91.10
21108;DHT22;10712;52.944;9.098;2022-09-09T02:38:12;14.00;91.10
21108;DHT22;10712;52.944;9.098;2022-09-09T02:40:45;14.00;91.10
21108;DHT22;10712;52.944;9.098;2022-09-09T02:43:11;14.00;91.00
21108;DHT22;10712;52.944;9.098;2022-09-09T02:45:51;14.00;91.10
21108;DHT22;10712;52.944;9.098;2022-09-09T02:48:36;14.00;91.10
21108;DHT22;10712;52.944;9.098;2022-09-09T02:51:15;14.00;91.20
21108;DHT22;10712;52.944;9.098;2022-09-09T02:54:20;14.00;91.10
21108;DHT22;10712;52.944;9.098;2022-09-09T02:57:14;14.00;91.10
21108;DHT22;10712;52.944;9.098;2022-09-09T02:59:47;13.90;91.10
21108;DHT22;10712;52.944;9.098;2022-09-09T03:02:15;13.90;91.10
21108;DHT22;10712;52.944;9.098;2022-09-09T03:04:44;13.90;91.10
21108;DHT22;10712;52.944;9.098;2022-09-09T03:07:16;13.90;91.10
21108;DHT22;10712;52.944;9.098;2022-09-09T03:09:44;13.90;91.10
21108;DHT22;10712;52.944;9.098;2022-09-09T03:12:10;13.90;91.20
21108;DHT22;10712;52.944;9.098;2022-09-09T03:14:38;13.90;91.30
21108;DHT22;10712;52.944;9.098;2022-09-09T03:17:05;13.90;91.40
21108;DHT22;10712;52.944;9.098;2022-09-09T03:19:36;13.90;91.60
21108;DHT22;10712;52.944;9.098;2022-09-09T03:22:03;13.90;91.80
21108;DHT22;10712;52.944;9.098;2022-09-09T03:24:31;13.90;92.00
21108;DHT22;10712;52.944;9.098;2022-09-09T03:26:57;14.00;92.10
21108;DHT22;10712;52.944;9.098;2022-09-09T03:29:23;14.00;92.10
21108;DHT22;10712;52.944;9.098;2022-09-09T03:31:52;14.00;92.20
21108;DHT22;10712;52.944;9.098;2022-09-09T03:34:19;14.10;92.30
21108;DHT22;10712;52.944;9.098;2022-09-09T03:36:45;14.10;92.30
21108;DHT22;10712;52.944;9.098;2022-09-09T03:39:11;14.10;92.40
21108;DHT22;10712;52.944;9.098;2022-09-09T03:41:40;14.10;92.40
21108;DHT22;10712;52.944;9.098;2022-09-09T03:44:06;14.10;92.50
21108;DHT22;10712;52.944;9.098;2022-09-09T03:46:37;14.10;92.50
21108;DHT22;10712;52.944;9.098;2022-09-09T03:49:03;14.20;92.70
21108;DHT22;10712;52.944;9.098;2022-09-09T03:51:31;14.20;92.80
21108;DHT22;10712;52.944;9.098;2022-09-09T03:53:57;14.20;92.90
21108;DHT22;10712;52.944;9.098;2022-09-09T03:56:25;14.20;92.90
21108;DHT22;10712;52.944;9.098;2022-09-09T03:58:52;14.20;92.90
21108;DHT22;10712;52.944;9.098;2022-09-09T04:01:18;14.20;92.90
21108;DHT22;10712;52.944;9.098;2022-09-09T04:03:44;14.30;92.90
21108;DHT22;10712;52.944;9.098;2022-09-09T04:06:12;14.30;92.90
21108;DHT22;10712;52.944;9.098;2022-09-09T04:08:40;14.30;92.70
21108;DHT22;10712;52.944;9.098;2022-09-09T04:11:07;14.30;92.80
21108;DHT22;10712;52.944;9.098;2022-09-09T04:13:36;14.30;92.80
21108;DHT22;10712;52.944;9.098;2022-09-09T04:16:09;14.30;92.70
21108;DHT22;10712;52.944;9.098;2022-09-09T04:18:37;14.30;92.60
21108;DHT22;10712;52.944;9.098;2022-09-09T04:21:03;14.30;92.60
21108;DHT22;10712;52.944;9.098;2022-09-09T04:23:31;14.30;92.60
21108;DHT22;10712;52.944;9.098;2022-09-09T04:26:00;14.30;92.50
21108;DHT22;10712;52.944;9.098;2022-09-09T04:28:30;14.40;92.60
21108;DHT22;10712;52.944;9.098;2022-09-09T04:31:08;14.40;92.70
21108;DHT22;10712;52.944;9.098;2022-09-09T04:33:38;14.40;92.70
21108;DHT22;10712;52.944;9.098;2022-09-09T04:36:05;14.40;92.60
21108;DHT22;10712;52.944;9.098;2022-09-09T04:38:31;14.40;92.60
21108;DHT22;10712;52.944;9.098;2022-09-09T04:40:57;14.40;92.60
21108;DHT22;10712;52.944;9.098;2022-09-09T04:43:24;14.40;92.60
21108;DHT22;10712;52.944;9.098;2022-09-09T04:45:53;14.40;92.70
21108;DHT22;10712;52.944;9.098;2022-09-09T04:48:22;14.40;92.70
21108;DHT22;10712;52.944;9.098;2022-09-09T04:50:56;14.40;92.70
21108;DHT22;10712;52.944;9.098;2022-09-09T04:53:41;14.40;92.70
21108;DHT22;10712;52.944;9.098;2022-09-09T04:56:12;14.50;92.70
21108;DHT22;10712;52.944;9.098;2022-09-09T04:58:47;14.50;92.70
21108;DHT22;10712;52.944;9.098;2022-09-09T05:01:19;14.50;92.70
21108;DHT22;10712;52.944;9.098;2022-09-09T05:03:51;14.50;92.70
21108;DHT22;10712;52.944;9.098;2022-09-09T05:06:22;14.50;92.80
21108;DHT22;10712;52.944;9.098;2022-09-09T05:08:52;14.50;92.80
21108;DHT22;10712;52.944;9.098;2022-09-09T05:11:28;14.50;92.80
21108;DHT22;10712;52.944;9.098;2022-09-09T05:14:21;14.50;92.90
21108;DHT22;10712;52.944;9.098;2022-09-09T05:16:46;14.50;92.80
21108;DHT22;10712;52.944;9.098;2022-09-09T05:19:13;14.50;92.80
21108;DHT22;10712;52.944;9.098;2022-09-09T05:21:45;14.50;92.90
21108;DHT22;10712;52.944;9.098;2022-09-09T05:24:13;14.50;92.90
21108;DHT22;10712;52.944;9.098;2022-09-09T05:26:40;14.50;92.80
21108;DHT22;10712;52.944;9.098;2022-09-09T05:29:07;14.50;92.80
21108;DHT22;10712;52.944;9.098;2022-09-09T05:31:33;14.50;92.80
21108;DHT22;10712;52.944;9.098;2022-09-09T05:34:03;14.50;92.90
21108;DHT22;10712;52.944;9.098;2022-09-09T05:36:29;14.50;92.90
21108;DHT22;10712;52.944;9.098;2022-09-09T05:38:56;14.50;93.00
21108;DHT22;10712;52.944;9.098;2022-09-09T05:41:23;14.60;93.00
21108;DHT22;10712;52.944;9.098;2022-09-09T05:43:52;14.60;92.90
21108;DHT22;10712;52.944;9.098;2022-09-09T05:46:24;14.60;92.90
21108;DHT22;10712;52.944;9.098;2022-09-09T05:48:52;14.60;92.90
21108;DHT22;10712;52.944;9.098;2022-09-09T05:51:26;14.60;92.80
21108;DHT22;10712;52.944;9.098;2022-09-09T05:53:55;14.60;92.80
21108;DHT22;10712;52.944;9.098;2022-09-09T05:56:28;14.60;92.80
21108;DHT22;10712;52.944;9.098;2022-09-09T05:58:56;14.60;92.80
21108;DHT22;10712;52.944;9.098;2022-09-09T06:01:28;14.60;92.80
21108;DHT22;10712;52.944;9.098;2022-09-09T06:03:57;14.60;92.90
21108;DHT22;10712;52.944;9.098;2022-09-09T06:06:46;14.70;93.00
21108;DHT22;10712;52.944;9.098;2022-09-09T06:09:14;14.70;93.00
21108;DHT22;10712;52.944;9.098;2022-09-09T06:11:42;14.70;92.90
21108;DHT22;10712;52.944;9.098;2022-09-09T06:14:09;14.70;93.00
21108;DHT22;10712;52.944;9.098;2022-09-09T06:16:36;14.70;93.00
21108;DHT22;10712;52.944;9.098;2022-09-09T06:19:05;14.80;93.10
21108;DHT22;10712;52.944;9.098;2022-09-09T06:21:36;14.80;93.20
21108;DHT22;10712;52.944;9.098;2022-09-09T06:24:05;14.90;93.20
21108;DHT22;10712;52.944;9.098;2022-09-09T06:26:35;14.90;93.10
21108;DHT22;10712;52.944;9.098;2022-09-09T06:29:04;14.90;93.00
21108;DHT22;10712;52.944;9.098;2022-09-09T06:31:32;15.00;93.00
21108;DHT22;10712;52.944;9.098;2022-09-09T06:34:12;15.00;92.90
21108;DHT22;10712;52.944;9.098;2022-09-09T06:36:41;15.10;92.90
21108;DHT22;10712;52.944;9.098;2022-09-09T06:39:07;15.10;92.90
21108;DHT22;10712;52.944;9.098;2022-09-09T06:41:37;15.20;92.70
21108;DHT22;10712;52.944;9.098;2022-09-09T06:44:06;15.20;92.70
21108;DHT22;10712;52.944;9.098;2022-09-09T06:46:39;15.20;92.70
21108;DHT22;10712;52.944;9.098;2022-09-09T06:49:05;15.30;92.80
21108;DHT22;10712;52.944;9.098;2022-09-09T06:51:37;15.40;92.60
21108;DHT22;10712;52.944;9.098;2022-09-09T06:54:11;15.40;92.70
21108;DHT22;10712;52.944;9.098;2022-09-09T06:56:40;15.50;92.70
21108;DHT22;10712;52.944;9.098;2022-09-09T06:59:12;15.60;92.60
21108;DHT22;10712;52.944;9.098;2022-09-09T07:01:41;15.60;92.60
21108;DHT22;10712;52.944;9.098;2022-09-09T07:04:13;15.70;92.60
21108;DHT22;10712;52.944;9.098;2022-09-09T07:06:44;15.80;92.60
21108;DHT22;10712;52.944;9.098;2022-09-09T07:09:16;15.80;92.50
21108;DHT22;10712;52.944;9.098;2022-09-09T07:11:50;15.80;92.40
21108;DHT22;10712;52.944;9.098;2022-09-09T07:14:22;15.90;92.40
21108;DHT22;10712;52.944;9.098;2022-09-09T07:16:53;15.90;92.30
21108;DHT22;10712;52.944;9.098;2022-09-09T07:19:19;15.90;92.20
21108;DHT22;10712;52.944;9.098;2022-09-09T07:21:47;15.90;92.20
21108;DHT22;10712;52.944;9.098;2022-09-09T07:24:17;15.90;92.20
21108;DHT22;10712;52.944;9.098;2022-09-09T07:26:43;15.90;92.30
21108;DHT22;10712;52.944;9.098;2022-09-09T07:29:10;15.90;92.30
21108;DHT22;10712;52.944;9.098;2022-09-09T07:31:39;15.90;92.30
21108;DHT22;10712;52.944;9.098;2022-09-09T07:34:11;16.00;92.30
21108;DHT22;10712;52.944;9.098;2022-09-09T07:36:39;16.00;92.40
21108;DHT22;10712;52.944;9.098;2022-09-09T07:39:12;16.00;92.40
21108;DHT22;10712;52.944;9.098;2022-09-09T07:41:44;16.10;92.30
21108;DHT22;10712;52.944;9.098;2022-09-09T07:44:14;16.10;92.20
21108;DHT22;10712;52.944;9.098;2022-09-09T07:46:45;16.20;92.30
21108;DHT22;10712;52.944;9.098;2022-09-09T07:49:14;16.20;92.30
21108;DHT22;10712;52.944;9.098;2022-09-09T07:51:43;16.30;92.30
21108;DHT22;10712;52.944;9.098;2022-09-09T07:54:14;16.30;92.10
21108;DHT22;10712;52.944;9.098;2022-09-09T07:56:44;16.40;92.00
21108;DHT22;10712;52.944;9.098;2022-09-09T07:59:11;16.40;92.10
21108;DHT22;10712;52.944;9.098;2022-09-09T08:01:45;16.50;91.90
21108;DHT22;10712;52.944;9.098;2022-09-09T08:04:18;16.50;91.90
21108;DHT22;10712;52.944;9.098;2022-09-09T08:06:49;16.50;91.90
21108;DHT22;10712;52.944;9.098;2022-09-09T08:09:19;16.50;91.90
21108;DHT22;10712;52.944;9.098;2022-09-09T08:11:48;16.50;91.90
21108;DHT22;10712;52.944;9.098;2022-09-09T08:14:15;16.60;91.90
21108;DHT22;10712;52.944;9.098;2022-09-09T08:16:44;16.60;91.70
21108;DHT22;10712;52.944;9.098;2022-09-09T08:19:14;16.60;91.70
21108;DHT22;10712;52.944;9.098;2022-09-09T08:21:45;16.70;91.60
21108;DHT22;10712;52.944;9.098;2022-09-09T08:24:12;16.70;91.70
21108;DHT22;10712;52.944;9.098;2022-09-09T08:26:47;16.70;91.60
21108;DHT22;10712;52.944;9.098;2022-09-09T08:29:16;16.70;91.50
21108;DHT22;10712;52.944;9.098;2022-09-09T08:31:46;16.70;91.50
21108;DHT22;10712;52.944;9.098;2022-09-09T08:34:15;16.80;91.50
21108;DHT22;10712;52.944;9.098;2022-09-09T08:36:44;16.80;91.50
21108;DHT22;10712;52.944;9.098;2022-09-09T08:39:14;16.80;91.70
21108;DHT22;10712;52.944;9.098;2022-09-09T08:47:31;17.00;91.30
21108;DHT22;10712;52.944;9.098;2022-09-09T08:53:00;17.20;91.20
21108;DHT22;10712;52.944;9.098;2022-09-09T08:58:27;17.40;90.70
21108;DHT22;10712;52.944;9.098;2022-09-09T09:10:33;17.60;90.20
21108;DHT22;10712;52.944;9.098;2022-09-09T09:13:23;17.60;90.20
21108;DHT22;10712;52.944;9.098;2022-09-09T09:16:02;17.70;90.40
21108;DHT22;10712;52.944;9.098;2022-09-09T09:18:35;17.70;90.00
21108;DHT22;10712;52.944;9.098;2022-09-09T09:21:14;17.70;89.70
21108;DHT22;10712;52.944;9.098;2022-09-09T09:23:58;17.70;89.60
21108;DHT22;10712;52.944;9.098;2022-09-09T09:26:34;17.70;89.20
21108;DHT22;10712;52.944;9.098;2022-09-09T09:29:10;17.70;89.40
21108;DHT22;10712;52.944;9.098;2022-09-09T09:31:43;17.70;89.00
21108;DHT22;10712;52.944;9.098;2022-09-09T09:34:14;17.70;88.90
21108;DHT22;10712;52.944;9.098;2022-09-09T09:37:01;17.70;88.90
21108;DHT22;10712;52.944;9.098;2022-09-09T09:39:32;17.70;88.90
21108;DHT22;10712;52.944;9.098;2022-09-09T09:42:12;17.80;88.50
21108;DHT22;10712;52.944;9.098;2022-09-09T09:44:41;17.80;88.60
21108;DHT22;10712;52.944;9.098;2022-09-09T09:47:22;17.90;88.20
21108;DHT22;10712;52.944;9.098;2022-09-09T09:50:19;18.00;88.00
21108;DHT22;10712;52.944;9.098;2022-09-09T09:52:57;18.10;87.90
21108;DHT22;10712;52.944;9.098;2022-09-09T09:55:30;18.20;87.70
21108;DHT22;10712;52.944;9.098;2022-09-09T09:58:06;18.30;87.30
21108;DHT22;10712;52.944;9.098;2022-09-09T10:00:51;18.40;87.10
21108;DHT22;10712;52.944;9.098;2022-09-09T10:03:29;18.40;86.30
21108;DHT22;10712;52.944;9.098;2022-09-09T10:05:58;18.40;85.60
21108;DHT22;10712;52.944;9.098;2022-09-09T10:08:28;18.50;85.40
21108;DHT22;10712;52.944;9.098;2022-09-09T10:19:26;18.90;84.30
21108;DHT22;10712;52.944;9.098;2022-09-09T10:27:45;18.70;83.10
21108;DHT22;10712;52.944;9.098;2022-09-09T10:30:56;18.60;83.40
21108;DHT22;10712;52.944;9.098;2022-09-09T10:33:49;18.60;83.40
21108;DHT22;10712;52.944;9.098;2022-09-09T10:36:44;18.50;83.80
21108;DHT22;10712;52.944;9.098;2022-09-09T10:39:36;18.40;83.70
21108;DHT22;10712;52.944;9.098;2022-09-09T10:42:09;18.40;84.00
21108;DHT22;10712;52.944;9.098;2022-09-09T10:56:51;18.40;84.70
21108;DHT22;10712;52.944;9.098;2022-09-09T10:59:26;18.40;84.60
21108;DHT22;10712;52.944;9.098;2022-09-09T11:02:29;18.40;84.50
21108;DHT22;10712;52.944;9.098;2022-09-09T11:05:05;18.40;84.40
21108;DHT22;10712;52.944;9.098;2022-09-09T11:07:54;18.40;84.10
21108;DHT22;10712;52.944;9.098;2022-09-09T11:13:49;18.40;84.30
21108;DHT22;10712;52.944;9.098;2022-09-09T11:22:12;18.40;84.90
21108;DHT22;10712;52.944;9.098;2022-09-09T11:25:32;18.30;85.50
21108;DHT22;10712;52.944;9.098;2022-09-09T11:37:35;18.20;88.50
21108;DHT22;10712;52.944;9.098;2022-09-09T11:43:05;18.20;89.20
21108;DHT22;10712;52.944;9.098;2022-09-09T11:45:40;18.10;89.50
21108;DHT22;10712;52.944;9.098;2022-09-09T11:53:54;18.00;90.00
21108;DHT22;10712;52.944;9.098;2022-09-09T11:59:16;18.00;90.20
21108;DHT22;10712;52.944;9.098;2022-09-09T12:02:00;17.90;89.80
21108;DHT22;10712;52.944;9.098;2022-09-09T12:04:40;17.80;89.20
21108;DHT22;10712;52.944;9.098;2022-09-09T12:09:56;17.50;89.00
21108;DHT22;10712;52.944;9.098;2022-09-09T12:12:29;17.50;89.50
21108;DHT22;10712;52.944;9.098;2022-09-09T12:15:01;17.40;90.10
21108;DHT22;10712;52.944;9.098;2022-09-09T12:23:02;17.30;90.30
21108;DHT22;10712;52.944;9.098;2022-09-09T12:25:43;17.30;90.40
21108;DHT22;10712;52.944;9.098;2022-09-09T12:31:47;17.30;90.90
21108;DHT22;10712;52.944;9.098;2022-09-09T12:34:39;17.20;91.30
21108;DHT22;10712;52.944;9.098;2022-09-09T12:39:51;17.10;91.50
21108;DHT22;10712;52.944;9.098;2022-09-09T12:42:21;17.10;91.50
21108;DHT22;10712;52.944;9.098;2022-09-09T12:47:21;17.20;91.60
21108;DHT22;10712;52.944;9.098;2022-09-09T12:49:51;17.20;91.60
21108;DHT22;10712;52.944;9.098;2022-09-09T12:54:57;17.20;91.40
21108;DHT22;10712;52.944;9.098;2022-09-09T12:57:25;17.10;91.40
21108;DHT22;10712;52.944;9.098;2022-09-09T13:00:05;17.10;91.20
21108;DHT22;10712;52.944;9.098;2022-09-09T13:02:48;17.10;91.20
21108;DHT22;10712;52.944;9.098;2022-09-09T13:05:26;17.10;91.10
21108;DHT22;10712;52.944;9.098;2022-09-09T13:08:04;17.10;91.30
21108;DHT22;10712;52.944;9.098;2022-09-09T13:10:35;17.10;91.70
21108;DHT22;10712;52.944;9.098;2022-09-09T13:13:14;17.20;91.80
21108;DHT22;10712;52.944;9.098;2022-09-09T13:15:58;17.30;91.80
21108;DHT22;10712;52.944;9.098;2022-09-09T13:18:32;17.40;91.70
21108;DHT22;10712;52.944;9.098;2022-09-09T13:21:04;17.50;91.60
21108;DHT22;10712;52.944;9.098;2022-09-09T13:23:32;17.60;91.60
21108;DHT22;10712;52.944;9.098;2022-09-09T13:26:05;17.70;91.60
21108;DHT22;10712;52.944;9.098;2022-09-09T13:28:47;17.80;91.40
21108;DHT22;10712;52.944;9.098;2022-09-09T13:31:27;17.90;91.20
21108;DHT22;10712;52.944;9.098;2022-09-09T13:33:55;17.90;91.00
21108;DHT22;10712;52.944;9.098;2022-09-09T13:36:32;18.00;90.80
21108;DHT22;10712;52.944;9.098;2022-09-09T13:39:01;18.00;90.80
21108;DHT22;10712;52.944;9.098;2022-09-09T13:41:34;18.00;90.70
21108;DHT22;10712;52.944;9.098;2022-09-09T13:44:02;18.00;90.70
21108;DHT22;10712;52.944;9.098;2022-09-09T13:46:37;18.00;90.20
21108;DHT22;10712;52.944;9.098;2022-09-09T13:51:37;18.00;90.30
21108;DHT22;10712;52.944;9.098;2022-09-09T13:54:06;18.00;90.40
21108;DHT22;10712;52.944;9.098;2022-09-09T13:56:35;18.00;90.30
21108;DHT22;10712;52.944;9.098;2022-09-09T13:59:05;18.00;90.20
21108;DHT22;10712;52.944;9.098;2022-09-09T14:01:35;18.00;90.20
21108;DHT22;10712;52.944;9.098;2022-09-09T14:04:01;18.00;90.20
21108;DHT22;10712;52.944;9.098;2022-09-09T14:06:27;18.00;90.10
21108;DHT22;10712;52.944;9.098;2022-09-09T14:08:54;17.90;89.90
21108;DHT22;10712;52.944;9.098;2022-09-09T14:11:21;17.90;89.90
21108;DHT22;10712;52.944;9.098;2022-09-09T14:13:48;17.90;89.70
21108;DHT22;10712;52.944;9.098;2022-09-09T14:16:18;17.90;89.60
21108;DHT22;10712;52.944;9.098;2022-09-09T14:18:45;17.90;89.60
21108;DHT22;10712;52.944;9.098;2022-09-09T14:21:11;17.80;89.70
21108;DHT22;10712;52.944;9.098;2022-09-09T14:23:38;17.80;89.70
21108;DHT22;10712;52.944;9.098;2022-09-09T14:26:05;17.80;89.80
21108;DHT22;10712;52.944;9.098;2022-09-09T14:28:32;17.80;89.90
21108;DHT22;10712;52.944;9.098;2022-09-09T14:31:03;17.70;90.10
21108;DHT22;10712;52.944;9.098;2022-09-09T14:33:29;17.70;90.30
21108;DHT22;10712;52.944;9.098;2022-09-09T14:36:00;17.70;90.50
21108;DHT22;10712;52.944;9.098;2022-09-09T14:38:36;17.70;90.80
21108;DHT22;10712;52.944;9.098;2022-09-09T14:41:09;17.60;90.90
21108;DHT22;10712;52.944;9.098;2022-09-09T14:43:40;17.50;91.10
21108;DHT22;10712;52.944;9.098;2022-09-09T14:46:11;17.50;91.20
21108;DHT22;10712;52.944;9.098;2022-09-09T14:48:38;17.30;91.00
21108;DHT22;10712;52.944;9.098;2022-09-09T14:53:47;17.20;90.40
21108;DHT22;10712;52.944;9.098;2022-09-09T14:56:18;17.10;89.60
21108;DHT22;10712;52.944;9.098;2022-09-09T14:58:46;16.90;89.60
21108;DHT22;10712;52.944;9.098;2022-09-09T15:01:15;16.90;89.90
21108;DHT22;10712;52.944;9.098;2022-09-09T15:03:48;16.80;89.80
21108;DHT22;10712;52.944;9.098;2022-09-09T15:06:15;16.70;89.60
21108;DHT22;10712;52.944;9.098;2022-09-09T15:12:46;16.50;89.50
21108;DHT22;10712;52.944;9.098;2022-09-09T15:15:12;16.40;89.60
21108;DHT22;10712;52.944;9.098;2022-09-09T15:17:38;16.30;89.30
21108;DHT22;10712;52.944;9.098;2022-09-09T15:20:05;16.10;89.30
21108;DHT22;10712;52.944;9.098;2022-09-09T15:22:31;16.10;89.50
21108;DHT22;10712;52.944;9.098;2022-09-09T15:24:57;16.00;89.60
21108;DHT22;10712;52.944;9.098;2022-09-09T15:27:23;16.00;90.00
21108;DHT22;10712;52.944;9.098;2022-09-09T15:29:49;15.90;89.50
21108;DHT22;10712;52.944;9.098;2022-09-09T15:32:17;15.90;89.70
21108;DHT22;10712;52.944;9.098;2022-09-09T15:34:44;15.80;90.00
21108;DHT22;10712;52.944;9.098;2022-09-09T15:37:10;15.80;90.20
21108;DHT22;10712;52.944;9.098;2022-09-09T15:39:39;15.80;89.90
21108;DHT22;10712;52.944;9.098;2022-09-09T15:42:06;15.80;89.90
21108;DHT22;10712;52.944;9.098;2022-09-09T15:44:42;15.80;90.00
21108;DHT22;10712;52.944;9.098;2022-09-09T15:47:11;15.70;90.30
21108;DHT22;10712;52.944;9.098;2022-09-09T15:49:38;15.70;90.60
21108;DHT22;10712;52.944;9.098;2022-09-09T15:52:04;15.70;90.60
21108;DHT22;10712;52.944;9.098;2022-09-09T15:54:32;15.70;90.70
21108;DHT22;10712;52.944;9.098;2022-09-09T15:57:02;15.60;90.90
21108;DHT22;10712;52.944;9.098;2022-09-09T15:59:30;15.60;91.10
21108;DHT22;10712;52.944;9.098;2022-09-09T16:01:57;15.60;91.20
21108;DHT22;10712;52.944;9.098;2022-09-09T16:04:25;15.70;91.20
21108;DHT22;10712;52.944;9.098;2022-09-09T16:06:57;15.70;91.30
21108;DHT22;10712;52.944;9.098;2022-09-09T16:09:26;15.70;91.40
21108;DHT22;10712;52.944;9.098;2022-09-09T16:11:55;15.70;91.40
21108;DHT22;10712;52.944;9.098;2022-09-09T16:14:21;15.70;91.30
21108;DHT22;10712;52.944;9.098;2022-09-09T16:16:47;15.70;91.30
21108;DHT22;10712;52.944;9.098;2022-09-09T16:19:14;15.70;91.30
21108;DHT22;10712;52.944;9.098;2022-09-09T16:21:42;15.80;91.20
21108;DHT22;10712;52.944;9.098;2022-09-09T16:24:12;15.80;90.70
21108;DHT22;10712;52.944;9.098;2022-09-09T16:26:42;15.80;90.60
21108;DHT22;10712;52.944;9.098;2022-09-09T16:29:13;15.80;90.70
21108;DHT22;10712;52.944;9.098;2022-09-09T16:31:40;15.80;90.80
21108;DHT22;10712;52.944;9.098;2022-09-09T16:34:06;15.80;90.70
21108;DHT22;10712;52.944;9.098;2022-09-09T16:36:35;15.80;90.60
21108;DHT22;10712;52.944;9.098;2022-09-09T16:39:06;15.80;90.70
21108;DHT22;10712;52.944;9.098;2022-09-09T16:41:37;15.70;90.90
21108;DHT22;10712;52.944;9.098;2022-09-09T16:44:06;15.70;91.10
21108;DHT22;10712;52.944;9.098;2022-09-09T16:46:36;15.70;91.20
21108;DHT22;10712;52.944;9.098;2022-09-09T16:49:11;15.80;91.20
21108;DHT22;10712;52.944;9.098;2022-09-09T16:51:41;15.80;91.20
21108;DHT22;10712;52.944;9.098;2022-09-09T16:54:10;15.80;91.10
21108;DHT22;10712;52.944;9.098;2022-09-09T16:56:39;15.80;91.10
21108;DHT22;10712;52.944;9.098;2022-09-09T16:59:12;15.80;91.10
21108;DHT22;10712;52.944;9.098;2022-09-09T17:01:41;15.80;91.00
21108;DHT22;10712;52.944;9.098;2022-09-09T17:04:16;15.80;91.00
21108;DHT22;10712;52.944;9.098;2022-09-09T17:06:50;15.80;91.00
21108;DHT22;10712;52.944;9.098;2022-09-09T17:09:18;15.80;91.00
21108;DHT22;10712;52.944;9.098;2022-09-09T17:11:46;15.80;91.00
21108;DHT22;10712;52.944;9.098;2022-09-09T17:14:15;15.80;91.20
21108;DHT22;10712;52.944;9.098;2022-09-09T17:16:42;15.80;91.40
21108;DHT22;10712;52.944;9.098;2022-09-09T17:19:09;15.70;91.60
21108;DHT22;10712;52.944;9.098;2022-09-09T17:21:36;15.70;91.70
21108;DHT22;10712;52.944;9.098;2022-09-09T17:24:03;15.70;91.80
21108;DHT22;10712;52.944;9.098;2022-09-09T17:26:31;15.70;91.70
21108;DHT22;10712;52.944;9.098;2022-09-09T17:28:59;15.70;91.70
21108;DHT22;10712;52.944;9.098;2022-09-09T17:31:28;15.70;91.20
21108;DHT22;10712;52.944;9.098;2022-09-09T17:33:55;15.60;90.80
21108;DHT22;10712;52.944;9.098;2022-09-09T17:36:28;15.60;90.60
21108;DHT22;10712;52.944;9.098;2022-09-09T17:38:56;15.60;90.80
21108;DHT22;10712;52.944;9.098;2022-09-09T17:41:34;15.60;91.00
21108;DHT22;10712;52.944;9.098;2022-09-09T17:44:01;15.60;91.00
21108;DHT22;10712;52.944;9.098;2022-09-09T17:46:33;15.60;91.20
21108;DHT22;10712;52.944;9.098;2022-09-09T17:49:07;15.60;91.10
21108;DHT22;10712;52.944;9.098;2022-09-09T17:51:38;15.60;91.30
21108;DHT22;10712;52.944;9.098;2022-09-09T17:54:08;15.60;91.40
21108;DHT22;10712;52.944;9.098;2022-09-09T17:56:37;15.60;91.40
21108;DHT22;10712;52.944;9.098;2022-09-09T17:59:05;15.60;91.50
21108;DHT22;10712;52.944;9.098;2022-09-09T18:01:34;15.60;91.70
21108;DHT22;10712;52.944;9.098;2022-09-09T18:04:06;15.60;91.70
21108;DHT22;10712;52.944;9.098;2022-09-09T18:06:37;15.50;91.60
21108;DHT22;10712;52.944;9.098;2022-09-09T18:09:14;15.50;91.80
21108;DHT22;10712;52.944;9.098;2022-09-09T18:11:44;15.50;91.80
21108;DHT22;10712;52.944;9.098;2022-09-09T18:14:17;15.50;91.90
21108;DHT22;10712;52.944;9.098;2022-09-09T18:16:45;15.50;92.00
21108;DHT22;10712;52.944;9.098;2022-09-09T18:19:13;15.50;92.00